createdAt,value
2022-10-17T00:01:15.929Z,14.80
2022-10-17T00:03:44.629Z,14.80
2022-10-17T00:06:15.189Z,14.80
2022-10-17T00:08:44.460Z,14.80
2022-10-17T00:11:18.394Z,14.80
2022-10-17T00:13:47.454Z,14.80
2022-10-17T00:16:16.563Z,14.80
2022-10-17T00:18:45.132Z,14.80
2022-10-17T00:21:17.457Z,14.70
2022-10-17T00:23:46.215Z,14.80
2022-10-17T00:26:16.480Z,14.80
2022-10-17T00:28:47.862Z,14.80
2022-10-17T00:31:18.663Z,14.80
2022-10-17T00:33:48.349Z,14.90
2022-10-17T00:36:20.328Z,14.90
2022-10-17T00:38:51.489Z,14.90
2022-10-17T00:41:24.233Z,14.90
2022-10-17T00:43:55.090Z,14.90
2022-10-17T00:46:26.145Z,14.90
2022-10-17T00:48:57.134Z,14.90
2022-10-17T00:51:32.125Z,14.90
2022-10-17T00:54:02.043Z,14.90
2022-10-17T00:56:32.946Z,14.90
2022-10-17T00:59:01.929Z,14.90
2022-10-17T01:01:30.916Z,14.90
2022-10-17T01:03:59.963Z,14.90
2022-10-17T01:06:28.602Z,14.90
2022-10-17T01:08:57.833Z,14.90
2022-10-17T01:11:38.311Z,14.90
2022-10-17T01:14:14.552Z,14.90
2022-10-17T01:16:48.929Z,14.90
2022-10-17T01:19:36.885Z,14.90
2022-10-17T01:22:11.943Z,15.00
2022-10-17T01:24:56.698Z,15.00
2022-10-17T01:27:47.412Z,15.00
2022-10-17T01:30:52.233Z,15.10
2022-10-17T01:33:32.416Z,15.10
2022-10-17T01:36:08.047Z,15.10
2022-10-17T01:38:45.119Z,15.10
2022-10-17T01:41:20.254Z,15.20
2022-10-17T01:43:54.581Z,15.20
2022-10-17T01:46:27.940Z,15.20
2022-10-17T01:49:01.233Z,15.20
2022-10-17T01:51:32.861Z,15.20
2022-10-17T01:54:07.732Z,15.30
2022-10-17T01:56:37.557Z,15.30
2022-10-17T01:59:10.531Z,15.30
2022-10-17T02:01:42.449Z,15.40
2022-10-17T02:04:12.825Z,15.40
2022-10-17T02:06:41.471Z,15.40
2022-10-17T02:09:19.484Z,15.40
2022-10-17T02:11:59.278Z,15.40
2022-10-17T02:14:38.687Z,15.50
2022-10-17T02:17:18.173Z,15.60
2022-10-17T02:19:57.222Z,15.60
2022-10-17T02:22:33.689Z,15.70
2022-10-17T02:25:08.692Z,15.70
2022-10-17T02:27:45.282Z,15.70
2022-10-17T02:30:21.784Z,15.80
2022-10-17T02:32:56.415Z,15.80
2022-10-17T02:35:28.534Z,15.90
2022-10-17T02:37:58.323Z,15.90
2022-10-17T02:40:30.125Z,16.00
2022-10-17T02:43:00.346Z,16.00
2022-10-17T02:45:35.938Z,16.00
2022-10-17T02:48:09.706Z,16.10
2022-10-17T02:50:48.883Z,16.00
2022-10-17T02:53:23.091Z,16.00
2022-10-17T02:55:55.170Z,16.10
2022-10-17T02:58:28.789Z,16.20
2022-10-17T03:00:57.810Z,16.10
2022-10-17T03:03:29.361Z,16.10
2022-10-17T03:06:03.228Z,16.20
2022-10-17T03:08:31.836Z,16.20
2022-10-17T03:11:02.149Z,16.20
2022-10-17T03:13:35.002Z,16.30
2022-10-17T03:16:07.270Z,16.30
2022-10-17T03:18:35.910Z,16.40
2022-10-17T03:21:07.133Z,16.40
2022-10-17T03:23:35.789Z,16.40
2022-10-17T03:26:07.083Z,16.50
2022-10-17T03:28:37.014Z,16.40
2022-10-17T03:31:09.889Z,16.40
2022-10-17T03:33:39.821Z,16.50
2022-10-17T03:36:12.362Z,16.50
2022-10-17T03:38:41.089Z,16.40
2022-10-17T03:41:10.084Z,16.40
2022-10-17T03:43:40.507Z,16.40
2022-10-17T03:46:09.993Z,16.40
2022-10-17T03:48:39.597Z,16.40
2022-10-17T03:51:11.080Z,16.40
2022-10-17T03:53:47.414Z,16.40
2022-10-17T03:56:17.458Z,16.40
2022-10-17T03:58:48.930Z,16.40
2022-10-17T04:01:19.379Z,16.40
2022-10-17T04:03:51.414Z,16.30
2022-10-17T04:06:22.385Z,16.30
2022-10-17T04:08:51.489Z,16.30
2022-10-17T04:11:35.391Z,16.30
2022-10-17T04:14:05.103Z,16.20
2022-10-17T04:16:33.836Z,16.20
2022-10-17T04:19:06.167Z,16.20
2022-10-17T04:21:42.782Z,16.10
2022-10-17T04:24:12.777Z,16.10
2022-10-17T04:27:10.365Z,16.20
2022-10-17T04:29:43.932Z,16.20
2022-10-17T04:32:18.237Z,16.20
2022-10-17T04:34:58.985Z,16.20
2022-10-17T04:37:30.280Z,16.20
2022-10-17T04:39:59.653Z,16.30
2022-10-17T04:42:31.665Z,16.20
2022-10-17T04:45:00.743Z,16.20
2022-10-17T04:47:29.845Z,16.20
2022-10-17T04:49:58.354Z,16.20
2022-10-17T04:52:27.262Z,16.20
2022-10-17T04:54:57.496Z,16.20
2022-10-17T04:57:26.204Z,16.20
2022-10-17T05:02:55.743Z,16.10
2022-10-17T05:05:24.289Z,16.10
2022-10-17T05:07:55.400Z,16.10
2022-10-17T05:10:32.372Z,16.10
2022-10-17T05:13:01.037Z,16.00
2022-10-17T05:15:33.098Z,16.00
2022-10-17T05:18:02.833Z,16.00
2022-10-17T05:20:32.245Z,16.00
2022-10-17T05:23:02.238Z,16.00
2022-10-17T05:25:37.429Z,16.00
2022-10-17T05:28:06.093Z,16.00
2022-10-17T05:30:37.580Z,16.00
2022-10-17T05:33:08.456Z,16.00
2022-10-17T05:35:37.562Z,16.00
2022-10-17T05:38:07.414Z,15.90
2022-10-17T05:40:39.484Z,15.90
2022-10-17T05:43:08.336Z,15.80
2022-10-17T05:45:37.938Z,15.80
2022-10-17T05:48:10.026Z,15.70
2022-10-17T05:50:38.558Z,15.70
2022-10-17T05:53:13.042Z,15.60
2022-10-17T05:55:55.839Z,15.60
2022-10-17T05:58:38.700Z,15.60
2022-10-17T06:01:20.938Z,15.50
2022-10-17T06:03:49.881Z,15.50
2022-10-17T06:06:19.322Z,15.50
2022-10-17T06:08:48.923Z,15.50
2022-10-17T06:11:24.045Z,15.50
2022-10-17T06:13:52.726Z,15.60
2022-10-17T06:16:25.834Z,15.60
2022-10-17T06:18:54.433Z,15.60
2022-10-17T06:21:25.700Z,15.70
2022-10-17T06:23:59.512Z,15.70
2022-10-17T06:26:35.526Z,15.70
2022-10-17T06:29:04.543Z,15.80
2022-10-17T06:31:37.440Z,15.80
2022-10-17T06:34:05.918Z,15.80
2022-10-17T06:36:34.535Z,15.90
2022-10-17T06:39:03.462Z,15.90
2022-10-17T06:41:40.975Z,16.00
2022-10-17T06:44:11.852Z,16.00
2022-10-17T06:46:59.458Z,16.00
2022-10-17T06:49:28.808Z,16.10
2022-10-17T06:52:19.628Z,16.10
2022-10-17T06:55:15.806Z,16.00
2022-10-17T06:58:08.360Z,16.00
2022-10-17T07:01:01.024Z,16.00
2022-10-17T07:03:30.597Z,16.00
2022-10-17T07:05:59.645Z,16.00
2022-10-17T07:08:29.295Z,16.00
2022-10-17T07:10:58.437Z,16.10
2022-10-17T07:13:29.868Z,16.20
2022-10-17T07:16:01.753Z,16.30
2022-10-17T07:18:31.619Z,16.40
2022-10-17T07:21:01.739Z,16.50
2022-10-17T07:23:31.178Z,16.60
2022-10-17T07:26:06.755Z,16.70
2022-10-17T07:28:37.699Z,16.70
2022-10-17T07:31:15.110Z,16.80
2022-10-17T07:33:44.081Z,16.90
2022-10-17T07:36:13.219Z,16.90
2022-10-17T07:38:42.146Z,16.90
2022-10-17T07:41:16.493Z,16.90
2022-10-17T07:43:50.140Z,16.90
2022-10-17T07:46:22.817Z,16.90
2022-10-17T07:48:51.736Z,16.90
2022-10-17T07:51:22.525Z,16.90
2022-10-17T07:53:51.062Z,16.90
2022-10-17T07:56:21.364Z,16.90
2022-10-17T07:58:51.625Z,17.00
2022-10-17T08:01:20.409Z,17.10
2022-10-17T08:03:49.585Z,17.10
2022-10-17T08:06:18.296Z,17.10
2022-10-17T08:08:47.295Z,17.20
2022-10-17T08:11:16.218Z,17.20
2022-10-17T08:13:44.708Z,17.30
2022-10-17T08:16:14.930Z,17.30
2022-10-17T08:18:44.609Z,17.30
2022-10-17T08:21:14.265Z,17.40
2022-10-17T08:23:42.979Z,17.50
2022-10-17T08:26:13.479Z,17.50
2022-10-17T08:28:42.439Z,17.60
2022-10-17T08:31:12.937Z,17.60
2022-10-17T08:33:43.649Z,17.80
2022-10-17T08:36:15.235Z,17.80
2022-10-17T08:38:44.528Z,17.80
2022-10-17T08:41:22.489Z,17.80
2022-10-17T08:44:04.872Z,17.80
2022-10-17T08:46:36.765Z,17.80
2022-10-17T08:49:13.806Z,17.90
2022-10-17T08:51:52.525Z,17.90
2022-10-17T08:54:25.387Z,17.90
2022-10-17T08:56:56.367Z,18.00
2022-10-17T08:59:28.522Z,18.00
2022-10-17T09:02:02.393Z,18.10
2022-10-17T09:04:54.433Z,18.10
2022-10-17T09:07:28.986Z,18.20
2022-10-17T09:10:05.185Z,18.20
2022-10-17T09:12:41.503Z,18.30
2022-10-17T09:15:30.215Z,18.30
2022-10-17T09:18:01.944Z,18.30
2022-10-17T09:20:35.406Z,18.30
2022-10-17T09:23:11.273Z,18.40
2022-10-17T09:25:44.840Z,18.60
2022-10-17T09:28:20.241Z,18.70
2022-10-17T09:30:51.486Z,18.80
2022-10-17T09:33:34.518Z,19.10
2022-10-17T09:36:09.878Z,19.10
2022-10-17T09:38:42.112Z,19.30
2022-10-17T09:41:44.246Z,19.40
2022-10-17T09:44:19.116Z,19.50
2022-10-17T09:47:14.196Z,19.50
2022-10-17T09:49:45.162Z,19.60
2022-10-17T09:52:17.499Z,19.60
2022-10-17T09:54:48.869Z,19.70
2022-10-17T09:57:20.180Z,19.70
2022-10-17T09:59:56.976Z,19.60
2022-10-17T10:02:27.686Z,19.70
2022-10-17T10:05:04.643Z,19.70
2022-10-17T10:07:38.253Z,19.70
2022-10-17T10:10:09.864Z,19.80
2022-10-17T10:12:40.349Z,19.90
2022-10-17T10:15:35.502Z,20.00
2022-10-17T10:18:04.307Z,20.10
2022-10-17T10:20:35.606Z,20.30
2022-10-17T10:23:14.461Z,20.40
2022-10-17T10:25:57.190Z,20.50
2022-10-17T10:28:31.902Z,20.50
2022-10-17T10:31:04.558Z,20.50
2022-10-17T10:33:41.339Z,20.60
2022-10-17T10:36:10.597Z,20.60
2022-10-17T10:38:42.447Z,20.70
2022-10-17T10:41:12.781Z,20.80
2022-10-17T10:43:44.806Z,20.80
2022-10-17T10:46:20.020Z,20.90
2022-10-17T10:48:53.158Z,20.90
2022-10-17T10:51:27.917Z,21.10
2022-10-17T10:54:04.754Z,21.10
2022-10-17T10:56:38.436Z,21.10
2022-10-17T10:59:18.925Z,21.10
2022-10-17T11:01:52.958Z,21.20
2022-10-17T11:04:29.414Z,21.30
2022-10-17T11:07:05.678Z,21.30
2022-10-17T11:09:46.365Z,21.40
2022-10-17T11:12:20.521Z,21.40
2022-10-17T11:14:56.917Z,21.40
2022-10-17T11:17:35.843Z,21.40
2022-10-17T11:20:16.849Z,21.40
2022-10-17T11:22:48.938Z,21.40
2022-10-17T11:25:33.055Z,21.30
2022-10-17T11:28:04.926Z,21.30
2022-10-17T11:30:48.779Z,21.20
2022-10-17T11:33:25.346Z,21.20
2022-10-17T11:35:58.933Z,21.20
2022-10-17T11:38:39.666Z,21.20
2022-10-17T11:41:16.324Z,21.20
2022-10-17T11:43:51.301Z,21.10
2022-10-17T11:46:23.767Z,21.10
2022-10-17T11:49:01.757Z,21.10
2022-10-17T11:54:29.445Z,21.10
2022-10-17T11:57:20.510Z,21.00
2022-10-17T12:00:04.029Z,21.00
2022-10-17T12:02:40.366Z,21.00
2022-10-17T12:05:19.861Z,21.00
2022-10-17T12:07:56.664Z,21.00
2022-10-17T12:10:35.237Z,21.00
2022-10-17T12:13:33.492Z,21.00
2022-10-17T12:16:39.625Z,21.00
2022-10-17T12:19:30.767Z,20.90
2022-10-17T12:22:18.760Z,20.90
2022-10-17T12:24:59.636Z,20.90
2022-10-17T12:27:46.148Z,20.90
2022-10-17T12:30:20.971Z,20.90
2022-10-17T12:33:08.386Z,20.80
2022-10-17T12:35:38.971Z,20.80
2022-10-17T12:38:22.349Z,20.80
2022-10-17T12:41:02.517Z,20.80
2022-10-17T12:46:49.776Z,20.80
2022-10-17T12:49:25.406Z,20.90
2022-10-17T12:52:22.631Z,20.80
2022-10-17T12:55:07.518Z,20.80
2022-10-17T12:57:44.837Z,20.70
2022-10-17T13:00:21.664Z,20.80
2022-10-17T13:02:53.193Z,20.70
2022-10-17T13:05:29.421Z,20.70
2022-10-17T13:08:01.173Z,20.70
2022-10-17T13:10:32.953Z,20.70
2022-10-17T13:13:07.837Z,20.60
2022-10-17T13:15:38.152Z,20.60
2022-10-17T13:18:07.183Z,20.60
2022-10-17T13:20:37.103Z,20.50
2022-10-17T13:23:05.617Z,20.50
2022-10-17T13:25:37.596Z,20.50
2022-10-17T13:28:14.513Z,20.50
2022-10-17T13:30:49.632Z,20.50
2022-10-17T13:33:35.245Z,20.50
2022-10-17T13:36:08.457Z,20.40
2022-10-17T13:38:40.349Z,20.40
2022-10-17T13:41:34.914Z,20.40
2022-10-17T13:44:05.126Z,20.40
2022-10-17T13:46:38.507Z,20.40
2022-10-17T13:49:17.729Z,20.40
2022-10-17T13:51:50.592Z,20.40
2022-10-17T13:54:37.344Z,20.40
2022-10-17T13:57:07.467Z,20.40
2022-10-17T13:59:40.081Z,20.40
2022-10-17T14:02:15.578Z,20.40
2022-10-17T14:05:15.027Z,20.40
2022-10-17T14:08:05.599Z,20.50
2022-10-17T14:10:32.384Z,20.50
2022-10-17T14:13:01.933Z,20.50
2022-10-17T14:15:32.848Z,20.60
2022-10-17T14:18:07.733Z,20.60
2022-10-17T14:21:19.726Z,20.60
2022-10-17T14:23:37.747Z,20.60
2022-10-17T14:26:09.214Z,20.60
2022-10-17T14:28:37.878Z,20.60
2022-10-17T14:31:30.773Z,20.60
2022-10-17T14:34:00.938Z,20.60
2022-10-17T14:36:38.542Z,20.60
2022-10-17T14:39:18.973Z,20.60
2022-10-17T14:41:48.913Z,20.60
2022-10-17T14:44:22.585Z,20.70
2022-10-17T14:46:57.805Z,20.60
2022-10-17T14:49:33.498Z,20.60
2022-10-17T14:52:27.067Z,20.60
2022-10-17T14:54:58.540Z,20.70
2022-10-17T14:57:35.710Z,20.70
2022-10-17T15:00:04.961Z,20.70
2022-10-17T15:02:33.891Z,20.70
2022-10-17T15:05:02.546Z,20.70
2022-10-17T15:07:31.249Z,20.70
2022-10-17T15:10:01.233Z,20.70
2022-10-17T15:12:31.535Z,20.60
2022-10-17T15:15:00.498Z,20.60
2022-10-17T15:17:32.156Z,20.60
2022-10-17T15:20:00.898Z,20.60
2022-10-17T15:22:31.400Z,20.60
2022-10-17T15:25:01.528Z,20.50
2022-10-17T15:27:32.473Z,20.50
2022-10-17T15:30:01.419Z,20.50
2022-10-17T15:32:29.886Z,20.50
2022-10-17T15:34:58.494Z,20.50
2022-10-17T15:37:27.198Z,20.40
2022-10-17T15:39:56.400Z,20.50
2022-10-17T15:42:29.904Z,20.40
2022-10-17T15:44:59.320Z,20.30
2022-10-17T15:47:31.193Z,20.30
2022-10-17T15:50:00.780Z,20.20
2022-10-17T15:52:29.746Z,20.20
2022-10-17T15:55:00.916Z,20.10
2022-10-17T15:57:37.981Z,20.10
2022-10-17T16:00:16.533Z,20.10
2022-10-17T16:02:46.028Z,20.00
2022-10-17T16:05:17.334Z,20.00
2022-10-17T16:07:46.775Z,20.00
2022-10-17T16:10:15.961Z,19.90
2022-10-17T16:12:46.782Z,19.90
2022-10-17T16:15:17.785Z,19.90
2022-10-17T16:17:46.412Z,19.80
2022-10-17T16:20:15.414Z,19.80
2022-10-17T16:22:45.575Z,19.80
2022-10-17T16:25:20.388Z,19.70
2022-10-17T16:27:51.635Z,19.70
2022-10-17T16:32:51.079Z,19.70
2022-10-17T16:35:21.570Z,19.60
2022-10-17T16:37:50.512Z,19.60
2022-10-17T16:40:20.093Z,19.50
2022-10-17T16:42:50.078Z,19.40
2022-10-17T16:45:22.168Z,19.50
2022-10-17T16:47:52.984Z,19.50
2022-10-17T16:50:21.641Z,19.40
2022-10-17T16:52:50.327Z,19.30
2022-10-17T16:55:19.714Z,19.40
2022-10-17T16:57:49.625Z,19.30
2022-10-17T17:00:19.953Z,19.30
2022-10-17T17:02:49.511Z,19.30
2022-10-17T17:05:18.187Z,19.20
2022-10-17T17:07:47.855Z,19.20
2022-10-17T17:10:16.518Z,19.20
2022-10-17T17:12:45.065Z,19.20
2022-10-17T17:15:13.615Z,19.10
2022-10-17T17:17:53.481Z,19.10
2022-10-17T17:20:23.729Z,19.10
2022-10-17T17:22:52.514Z,19.20
2022-10-17T17:25:21.057Z,19.20
2022-10-17T17:27:49.696Z,19.10
2022-10-17T17:30:18.697Z,19.00
2022-10-17T17:32:48.655Z,19.00
2022-10-17T17:35:17.334Z,19.00
2022-10-17T17:37:45.846Z,19.00
2022-10-17T17:40:14.520Z,19.00
2022-10-17T17:42:43.742Z,19.00
2022-10-17T17:45:12.974Z,19.10
2022-10-17T17:47:41.490Z,19.10
2022-10-17T17:50:11.477Z,19.20
2022-10-17T17:52:45.429Z,19.20
2022-10-17T17:55:14.408Z,19.10
2022-10-17T17:57:42.908Z,19.10
2022-10-17T18:00:12.762Z,19.20
2022-10-17T18:02:43.728Z,19.10
2022-10-17T18:05:14.596Z,19.10
2022-10-17T18:07:43.139Z,19.10
2022-10-17T18:12:44.208Z,18.90
2022-10-17T18:15:13.120Z,18.90
2022-10-17T18:17:42.459Z,18.80
2022-10-17T18:20:12.132Z,18.80
2022-10-17T18:22:42.117Z,18.80
2022-10-17T18:25:11.188Z,18.70
2022-10-17T18:27:39.728Z,18.70
2022-10-17T18:30:09.708Z,18.60
2022-10-17T18:32:38.289Z,18.50
2022-10-17T18:35:07.586Z,18.50
2022-10-17T18:37:36.162Z,18.50
2022-10-17T18:40:07.077Z,18.40
2022-10-17T18:42:35.815Z,18.40
2022-10-17T18:45:05.733Z,18.40
2022-10-17T18:47:34.336Z,18.40
2022-10-17T18:50:03.121Z,18.30
2022-10-17T18:52:31.732Z,18.20
2022-10-17T18:55:00.269Z,18.20
2022-10-17T18:57:30.749Z,18.20
2022-10-17T18:59:59.453Z,18.10
2022-10-17T19:02:27.969Z,18.10
2022-10-17T19:04:56.526Z,18.00
2022-10-17T19:07:25.183Z,17.90
2022-10-17T19:09:53.628Z,18.00
2022-10-17T19:12:22.333Z,17.90
2022-10-17T19:14:53.036Z,17.90
2022-10-17T19:17:21.586Z,17.90
2022-10-17T19:19:52.119Z,17.90
2022-10-17T19:22:20.824Z,17.80
2022-10-17T19:24:49.338Z,17.70
2022-10-17T19:27:20.188Z,17.80
2022-10-17T19:29:48.797Z,17.80
2022-10-17T19:32:20.674Z,17.70
2022-10-17T19:34:51.381Z,17.70
2022-10-17T19:37:19.946Z,17.70
2022-10-17T19:39:49.563Z,17.70
2022-10-17T19:42:18.176Z,17.60
2022-10-17T19:44:47.090Z,17.60
2022-10-17T19:47:15.546Z,17.50
2022-10-17T19:49:49.718Z,17.50
2022-10-17T19:52:18.697Z,17.60
2022-10-17T19:54:47.255Z,17.50
2022-10-17T19:57:15.737Z,17.50
2022-10-17T19:59:44.413Z,17.50
2022-10-17T20:02:14.414Z,17.50
2022-10-17T20:04:49.794Z,17.50
2022-10-17T20:07:32.794Z,17.40
2022-10-17T20:10:01.507Z,17.40
2022-10-17T20:12:30.987Z,17.40
2022-10-17T20:14:59.806Z,17.40
2022-10-17T20:17:28.464Z,17.40
2022-10-17T20:19:56.995Z,17.40
2022-10-17T20:22:25.582Z,17.40
2022-10-17T20:24:55.448Z,17.30
2022-10-17T20:27:27.572Z,17.30
2022-10-17T20:30:01.590Z,17.30
2022-10-17T20:32:32.260Z,17.30
2022-10-17T20:35:00.985Z,17.30
2022-10-17T20:37:29.701Z,17.30
2022-10-17T20:40:22.710Z,17.30
2022-10-17T20:42:48.284Z,17.20
2022-10-17T20:45:16.885Z,17.20
2022-10-17T20:47:49.171Z,17.20
2022-10-17T20:50:20.092Z,17.20
2022-10-17T20:52:49.147Z,17.10
2022-10-17T20:55:20.520Z,17.10
2022-10-17T20:57:48.925Z,17.00
2022-10-17T21:00:17.699Z,17.00
2022-10-17T21:02:46.223Z,17.00
2022-10-17T21:05:14.997Z,16.90
2022-10-17T21:07:44.001Z,16.90
2022-10-17T21:10:34.552Z,16.90
2022-10-17T21:13:02.631Z,16.90
2022-10-17T21:15:31.131Z,16.80
2022-10-17T21:17:59.664Z,16.80
2022-10-17T21:20:28.134Z,16.80
2022-10-17T21:22:57.344Z,16.80
2022-10-17T21:25:25.837Z,16.80
2022-10-17T21:27:54.355Z,16.80
2022-10-17T21:30:24.130Z,16.80
2022-10-17T21:32:55.403Z,16.70
2022-10-17T21:35:24.131Z,16.70
2022-10-17T21:37:52.648Z,16.70
2022-10-17T21:40:21.182Z,16.60
2022-10-17T21:42:49.649Z,16.70
2022-10-17T21:45:25.231Z,16.60
2022-10-17T21:48:12.128Z,16.60
2022-10-17T21:50:42.127Z,16.60
2022-10-17T21:53:10.659Z,16.60
2022-10-17T21:55:39.278Z,16.60
2022-10-17T21:58:07.753Z,16.60
2022-10-17T22:00:36.451Z,16.50
2022-10-17T22:03:07.193Z,16.50
2022-10-17T22:05:35.860Z,16.50
2022-10-17T22:08:04.425Z,16.50
2022-10-17T22:10:32.949Z,16.50
2022-10-17T22:13:01.415Z,16.50
2022-10-17T22:15:30.854Z,16.50
2022-10-17T22:17:59.378Z,16.50
2022-10-17T22:20:29.539Z,16.50
2022-10-17T22:22:57.954Z,16.50
2022-10-17T22:25:26.438Z,16.50
2022-10-17T22:27:54.885Z,16.40
2022-10-17T22:30:23.355Z,16.40
2022-10-17T22:32:51.806Z,16.40
2022-10-17T22:35:20.264Z,16.40
2022-10-17T22:37:50.054Z,16.40
2022-10-17T22:40:18.662Z,16.40
2022-10-17T22:42:47.101Z,16.40
2022-10-17T22:45:15.652Z,16.40
2022-10-17T22:47:44.129Z,16.30
2022-10-17T22:50:12.746Z,16.30
2022-10-17T22:52:41.199Z,16.30
2022-10-17T22:55:11.505Z,16.30
2022-10-17T22:57:40.192Z,16.30
2022-10-17T23:00:11.086Z,16.30
2022-10-17T23:02:40.319Z,16.30
2022-10-17T23:05:09.570Z,16.20
2022-10-17T23:07:38.209Z,16.30
2022-10-17T23:10:07.681Z,16.30
2022-10-17T23:12:37.569Z,16.30
2022-10-17T23:15:06.714Z,16.20
2022-10-17T23:17:35.187Z,16.20
2022-10-17T23:20:03.659Z,16.20
2022-10-17T23:22:32.339Z,16.20
2022-10-17T23:25:01.042Z,16.20
2022-10-17T23:30:05.613Z,16.20
2022-10-17T23:32:34.123Z,16.20
2022-10-17T23:35:02.624Z,16.20
2022-10-17T23:37:31.335Z,16.20
2022-10-17T23:40:00.026Z,16.20
2022-10-17T23:42:28.784Z,16.20
2022-10-17T23:44:57.289Z,16.20
2022-10-17T23:47:27.342Z,16.10
2022-10-17T23:49:55.835Z,16.10
2022-10-17T23:52:24.466Z,16.10
2022-10-17T23:54:52.981Z,16.10
2022-10-17T23:57:21.501Z,16.10
2022-10-17T23:59:49.930Z,16.10
